Time;durP1;ratioP1;P1;durP2;ratioP2;P2;SDS_P1;SDS_P2;PMS_P1;PMS_P2;Temp;Humidity;BMP_temperature;BMP_pressure;BME280_temperature;BME280_humidity;BME280_pressure;Samples;Min_cycle;Max_cycle;Signal;HPM_P1;HPM_P2
2023/04/20 00:02:46;;;;;;;;;;;9.40;53.60;;;;;;9179283;19;20283;-69
2023/04/20 00:05:53;;;;;;;;;;;9.30;53.60;;;;;;9178945;19;19919;-69
2023/04/20 00:08:56;;;;;;;;;;;9.30;53.70;;;;;;9180259;19;19919;-68
2023/04/20 00:12:02;;;;;;;;;;;9.30;53.70;;;;;;9176340;19;19921;-68
2023/04/20 00:15:07;;;;;;;;;;;9.20;53.70;;;;;;9179245;19;19918;-69
2023/04/20 00:18:14;;;;;;;;;;;9.20;53.80;;;;;;9178725;19;19979;-69
2023/04/20 00:21:20;;;;;;;;;;;9.20;53.80;;;;;;9179675;19;20337;-68
2023/04/20 00:24:26;;;;;;;;;;;9.20;53.70;;;;;;9178652;19;19930;-69
2023/04/20 00:27:30;;;;;;;;;;;9.20;53.80;;;;;;9178957;19;19926;-69
2023/04/20 00:30:35;;;;;;;;;;;9.10;53.80;;;;;;9177708;19;19919;-68
2023/04/20 00:33:42;;;;;;;;;;;9.10;53.80;;;;;;9178074;19;19934;-68
2023/04/20 00:36:48;;;;;;;;;;;9.10;53.90;;;;;;9169754;19;19926;-69
2023/04/20 00:39:52;;;;;;;;;;;9.10;53.90;;;;;;9176350;19;19921;-68
2023/04/20 00:42:58;;;;;;;;;;;9.10;53.90;;;;;;9177524;19;19923;-69
2023/04/20 00:46:02;;;;;;;;;;;9.10;53.90;;;;;;9175688;19;19914;-68
2023/04/20 00:49:10;;;;;;;;;;;9.00;53.80;;;;;;9176396;19;20265;-69
2023/04/20 00:52:14;;;;;;;;;;;9.00;53.90;;;;;;9173037;19;19922;-69
2023/04/20 00:55:20;;;;;;;;;;;9.00;53.90;;;;;;9177702;19;19918;-68
2023/04/20 00:58:24;;;;;;;;;;;9.00;53.90;;;;;;9176942;19;20272;-69
2023/04/20 01:01:30;;;;;;;;;;;9.00;54.00;;;;;;9177148;19;19918;-69
2023/04/20 01:04:55;;;;;;;;;;;8.90;54.00;;;;;;9175921;19;20333;-69
2023/04/20 01:08:00;;;;;;;;;;;9.00;54.10;;;;;;9177667;19;19927;-68
2023/04/20 01:11:06;;;;;;;;;;;9.00;54.10;;;;;;9176072;19;20406;-68
2023/04/20 01:14:12;;;;;;;;;;;8.90;54.10;;;;;;9173208;19;19918;-69
2023/04/20 01:17:16;;;;;;;;;;;8.90;54.20;;;;;;9177562;19;19919;-68
2023/04/20 01:20:26;;;;;;;;;;;8.90;54.20;;;;;;9174897;19;19915;-68
2023/04/20 01:23:35;;;;;;;;;;;8.90;54.20;;;;;;9177144;19;19918;-68
2023/04/20 01:26:42;;;;;;;;;;;8.90;54.30;;;;;;9175038;19;20289;-68
2023/04/20 01:29:46;;;;;;;;;;;8.90;54.40;;;;;;9176088;19;19923;-68
2023/04/20 01:32:56;;;;;;;;;;;8.90;54.40;;;;;;9171862;19;19951;-68
2023/04/20 01:36:00;;;;;;;;;;;8.90;54.50;;;;;;9171271;19;20006;-68
2023/04/20 01:39:09;;;;;;;;;;;8.90;55.10;;;;;;9175387;19;19918;-69
2023/04/20 01:42:13;;;;;;;;;;;8.90;54.50;;;;;;9175401;19;20280;-68
2023/04/20 01:45:19;;;;;;;;;;;9.00;54.50;;;;;;9176365;19;19917;-68
2023/04/20 01:48:22;;;;;;;;;;;9.00;54.60;;;;;;9173885;19;19922;-69
2023/04/20 01:51:28;;;;;;;;;;;9.00;54.60;;;;;;9173450;19;19934;-68
2023/04/20 01:54:34;;;;;;;;;;;9.00;54.50;;;;;;9175229;19;19922;-68
2023/04/20 01:57:40;;;;;;;;;;;9.10;54.60;;;;;;9173603;19;19923;-68
2023/04/20 02:00:44;;;;;;;;;;;9.10;54.60;;;;;;9174830;19;19918;-68
2023/04/20 02:03:50;;;;;;;;;;;9.10;54.70;;;;;;9174930;19;19922;-68
2023/04/20 02:06:57;;;;;;;;;;;9.10;54.70;;;;;;9173341;19;20343;-68
2023/04/20 02:10:05;;;;;;;;;;;9.20;54.70;;;;;;9174496;19;19922;-68
2023/04/20 02:13:08;;;;;;;;;;;9.20;54.70;;;;;;9180036;19;19914;-68
2023/04/20 02:16:14;;;;;;;;;;;9.30;54.80;;;;;;9182766;19;19925;-68
2023/04/20 02:19:18;;;;;;;;;;;9.30;54.80;;;;;;9182443;19;20725;-68
2023/04/20 02:22:24;;;;;;;;;;;9.30;54.80;;;;;;9181548;19;19931;-68
2023/04/20 02:25:30;;;;;;;;;;;9.40;54.80;;;;;;9183184;19;20340;-68
2023/04/20 02:28:36;;;;;;;;;;;9.40;54.80;;;;;;9182282;19;19934;-68
2023/04/20 02:31:41;;;;;;;;;;;9.40;54.80;;;;;;9180550;19;19915;-68
2023/04/20 02:34:46;;;;;;;;;;;9.40;54.90;;;;;;9181971;19;19922;-68
2023/04/20 02:37:50;;;;;;;;;;;9.50;55.00;;;;;;9176143;19;19926;-68
2023/04/20 02:40:58;;;;;;;;;;;9.50;55.00;;;;;;9181698;19;19922;-68
2023/04/20 02:44:02;;;;;;;;;;;9.50;54.90;;;;;;9179781;19;19922;-68
2023/04/20 02:47:08;;;;;;;;;;;9.50;54.90;;;;;;9179884;19;19926;-68
2023/04/20 02:50:12;;;;;;;;;;;9.60;55.60;;;;;;9180311;19;19918;-68
2023/04/20 02:53:36;;;;;;;;;;;9.60;55.00;;;;;;9179934;19;19927;-68
2023/04/20 02:57:11;;;;;;;;;;;9.60;55.00;;;;;;9180112;19;19941;-69
2023/04/20 03:00:17;;;;;;;;;;;9.70;55.10;;;;;;9179398;19;19922;-68
2023/04/20 03:03:41;;;;;;;;;;;9.70;55.10;;;;;;9180835;19;19964;-68
2023/04/20 03:06:50;;;;;;;;;;;9.70;55.10;;;;;;9179841;19;19941;-68
2023/04/20 03:10:00;;;;;;;;;;;9.70;55.10;;;;;;9179372;19;19986;-69
2023/04/20 03:13:37;;;;;;;;;;;9.70;55.10;;;;;;9177135;19;20341;-68
2023/04/20 03:16:41;;;;;;;;;;;9.70;55.10;;;;;;9178205;19;19926;-68
2023/04/20 03:19:47;;;;;;;;;;;9.70;55.10;;;;;;9178449;19;19934;-68
2023/04/20 03:22:50;;;;;;;;;;;9.70;55.20;;;;;;9180233;19;19919;-68
2023/04/20 03:26:00;;;;;;;;;;;9.70;55.20;;;;;;9176808;19;19921;-68
2023/04/20 03:29:15;;;;;;;;;;;9.70;55.20;;;;;;9178716;19;19919;-68
2023/04/20 03:32:22;;;;;;;;;;;9.70;55.30;;;;;;9176757;19;19934;-68
2023/04/20 03:35:26;;;;;;;;;;;9.70;55.30;;;;;;9180330;19;20373;-68
2023/04/20 03:38:32;;;;;;;;;;;9.70;55.30;;;;;;9171296;19;19918;-68
2023/04/20 03:41:36;;;;;;;;;;;9.70;55.30;;;;;;9178934;19;20469;-68
2023/04/20 03:44:43;;;;;;;;;;;9.70;55.30;;;;;;9180009;19;19927;-68
2023/04/20 03:47:47;;;;;;;;;;;9.70;55.40;;;;;;9178246;19;19956;-68
2023/04/20 03:50:53;;;;;;;;;;;9.70;55.40;;;;;;9177840;19;19926;-68
2023/04/20 03:53:57;;;;;;;;;;;9.80;55.40;;;;;;9177974;19;20260;-69
2023/04/20 03:57:03;;;;;;;;;;;9.70;55.40;;;;;;9178019;19;19914;-68
2023/04/20 04:00:11;;;;;;;;;;;9.80;55.40;;;;;;9178132;19;19930;-68
2023/04/20 04:03:25;;;;;;;;;;;9.80;55.40;;;;;;9178964;19;19918;-68
2023/04/20 04:06:30;;;;;;;;;;;9.80;55.40;;;;;;9179440;19;19915;-68
2023/04/20 04:09:36;;;;;;;;;;;9.80;55.40;;;;;;9177525;19;19922;-68
2023/04/20 04:12:40;;;;;;;;;;;9.80;55.50;;;;;;9174793;19;19929;-68
2023/04/20 04:15:47;;;;;;;;;;;9.80;55.50;;;;;;9178359;19;19923;-68
2023/04/20 04:18:55;;;;;;;;;;;9.80;55.50;;;;;;9176796;19;19937;-67
2023/04/20 04:22:00;;;;;;;;;;;9.70;55.50;;;;;;9176719;19;19926;-68
2023/04/20 04:25:09;;;;;;;;;;;9.70;55.50;;;;;;9176852;19;20276;-68
2023/04/20 04:28:15;;;;;;;;;;;9.70;55.60;;;;;;9177269;19;19929;-68
2023/04/20 04:31:30;;;;;;;;;;;9.70;55.70;;;;;;9176272;19;19919;-68
2023/04/20 04:34:43;;;;;;;;;;;9.70;55.70;;;;;;9175008;19;19923;-68
2023/04/20 04:37:46;;;;;;;;;;;9.70;55.70;;;;;;9171825;19;19915;-68
2023/04/20 04:40:55;;;;;;;;;;;9.70;55.70;;;;;;9176476;19;20018;-68
2023/04/20 04:43:59;;;;;;;;;;;9.60;55.70;;;;;;9175838;19;20343;-68
2023/04/20 04:47:10;;;;;;;;;;;9.60;55.70;;;;;;9176667;19;20010;-68
2023/04/20 04:50:14;;;;;;;;;;;9.60;55.70;;;;;;9177322;19;19918;-68
2023/04/20 04:53:20;;;;;;;;;;;9.60;55.70;;;;;;9173252;19;20351;-68
2023/04/20 04:56:23;;;;;;;;;;;9.60;55.80;;;;;;9177341;19;19919;-68
2023/04/20 04:59:29;;;;;;;;;;;9.60;55.80;;;;;;9177971;19;19923;-68
2023/04/20 05:02:35;;;;;;;;;;;9.60;55.80;;;;;;9176502;19;19964;-68
2023/04/20 05:05:41;;;;;;;;;;;9.60;55.80;;;;;;9176974;19;19974;-68
2023/04/20 05:08:45;;;;;;;;;;;9.60;55.80;;;;;;9177576;19;19925;-69
2023/04/20 05:11:50;;;;;;;;;;;9.60;55.80;;;;;;9175175;19;20289;-68
2023/04/20 05:14:54;;;;;;;;;;;9.60;55.90;;;;;;9175846;19;19922;-68
2023/04/20 05:18:02;;;;;;;;;;;9.50;55.90;;;;;;9173641;19;20244;-68
2023/04/20 05:21:06;;;;;;;;;;;9.50;56.00;;;;;;9175381;19;19922;-67
2023/04/20 05:24:11;;;;;;;;;;;9.50;56.00;;;;;;9176240;19;19914;-68
2023/04/20 05:27:15;;;;;;;;;;;9.50;56.00;;;;;;9176151;19;19923;-67
2023/04/20 05:30:21;;;;;;;;;;;9.50;56.10;;;;;;9176302;19;19923;-67
2023/04/20 05:33:27;;;;;;;;;;;9.40;56.10;;;;;;9171436;19;19949;-68
2023/04/20 05:36:34;;;;;;;;;;;9.40;56.10;;;;;;9170257;19;19929;-68
2023/04/20 05:39:37;;;;;;;;;;;9.40;56.10;;;;;;9176163;19;19918;-69
2023/04/20 05:42:43;;;;;;;;;;;9.40;56.20;;;;;;9176265;19;20380;-69
2023/04/20 05:45:47;;;;;;;;;;;9.40;56.20;;;;;;9176612;19;19958;-67
2023/04/20 05:48:55;;;;;;;;;;;9.40;56.20;;;;;;9184762;19;19914;-68
2023/04/20 05:51:58;;;;;;;;;;;9.40;56.20;;;;;;9181809;19;20256;-68
2023/04/20 05:55:05;;;;;;;;;;;9.40;56.20;;;;;;9181781;19;20459;-67
2023/04/20 05:58:10;;;;;;;;;;;9.40;56.30;;;;;;9181715;19;20509;-68
2023/04/20 06:01:16;;;;;;;;;;;9.40;56.30;;;;;;9180091;19;19926;-68
2023/04/20 06:04:22;;;;;;;;;;;9.40;56.40;;;;;;9178491;19;20310;-68
2023/04/20 06:07:28;;;;;;;;;;;9.40;56.30;;;;;;9177405;19;19915;-67
2023/04/20 06:10:33;;;;;;;;;;;9.40;56.40;;;;;;9171636;19;19926;-68
2023/04/20 06:13:38;;;;;;;;;;;9.50;56.50;;;;;;9172689;19;20264;-67
2023/04/20 06:16:42;;;;;;;;;;;9.40;56.40;;;;;;9176207;19;20365;-67
2023/04/20 06:19:50;;;;;;;;;;;9.40;56.40;;;;;;9175497;19;19926;-67
2023/04/20 06:22:54;;;;;;;;;;;9.50;56.50;;;;;;9175171;19;19935;-67
2023/04/20 06:26:00;;;;;;;;;;;9.40;56.50;;;;;;9175293;19;19930;-67
2023/04/20 06:29:03;;;;;;;;;;;9.50;56.60;;;;;;9176204;19;19919;-67
2023/04/20 06:32:09;;;;;;;;;;;9.50;56.60;;;;;;9174285;19;19918;-69
2023/04/20 06:35:15;;;;;;;;;;;9.50;56.60;;;;;;9171953;19;19926;-66
2023/04/20 06:38:21;;;;;;;;;;;9.50;56.60;;;;;;9162973;19;20260;-66
2023/04/20 06:41:24;;;;;;;;;;;9.50;56.60;;;;;;9172372;19;20589;-66
2023/04/20 06:44:30;;;;;;;;;;;9.50;56.60;;;;;;9171328;19;19911;-66
2023/04/20 06:47:34;;;;;;;;;;;9.50;56.60;;;;;;9173517;19;20001;-66
2023/04/20 06:50:42;;;;;;;;;;;9.50;56.70;;;;;;9170569;19;19915;-65
2023/04/20 06:53:45;;;;;;;;;;;9.50;56.70;;;;;;9168110;19;21296;-65
2023/04/20 06:56:51;;;;;;;;;;;9.50;56.80;;;;;;9163078;19;20360;-65
2023/04/20 06:59:55;;;;;;;;;;;9.50;56.80;;;;;;9174447;19;19955;-66
2023/04/20 07:03:01;;;;;;;;;;;9.50;56.90;;;;;;9173923;19;19922;-66
2023/04/20 07:06:09;;;;;;;;;;;9.50;56.90;;;;;;9178366;19;20321;-66
2023/04/20 07:09:18;;;;;;;;;;;9.50;56.90;;;;;;9180392;19;19954;-67
2023/04/20 07:12:21;;;;;;;;;;;9.60;57.00;;;;;;9175605;19;19967;-68
2023/04/20 07:15:27;;;;;;;;;;;9.60;57.00;;;;;;9181352;19;19926;-66
2023/04/20 07:18:31;;;;;;;;;;;9.60;57.00;;;;;;9179377;19;19930;-66
2023/04/20 07:21:42;;;;;;;;;;;9.50;56.90;;;;;;9176237;19;19921;-66
2023/04/20 07:24:45;;;;;;;;;;;9.60;57.00;;;;;;9175787;19;19925;-65
2023/04/20 07:27:51;;;;;;;;;;;9.50;57.00;;;;;;9175767;19;19918;-65
2023/04/20 07:30:55;;;;;;;;;;;9.50;57.10;;;;;;9176964;19;19930;-65
2023/04/20 07:34:01;;;;;;;;;;;9.50;57.20;;;;;;9174075;19;19918;-65
2023/04/20 07:37:06;;;;;;;;;;;9.50;57.10;;;;;;9169397;19;19923;-66
2023/04/20 07:40:12;;;;;;;;;;;9.50;57.20;;;;;;9172198;19;19918;-66
2023/04/20 07:43:16;;;;;;;;;;;9.50;57.20;;;;;;9159153;19;19925;-66
2023/04/20 07:46:22;;;;;;;;;;;9.50;57.20;;;;;;9170977;19;19926;-65
2023/04/20 07:49:26;;;;;;;;;;;9.60;57.40;;;;;;9162921;19;19930;-66
2023/04/20 07:52:34;;;;;;;;;;;9.60;57.40;;;;;;9169282;19;20253;-67
2023/04/20 07:55:38;;;;;;;;;;;9.70;57.40;;;;;;9173365;19;19918;-66
2023/04/20 07:58:44;;;;;;;;;;;9.70;57.40;;;;;;9177030;19;19915;-67
2023/04/20 08:01:47;;;;;;;;;;;9.80;57.40;;;;;;9170800;19;20502;-67
2023/04/20 08:04:53;;;;;;;;;;;9.90;57.50;;;;;;9170652;19;20471;-66
2023/04/20 08:08:00;;;;;;;;;;;10.00;57.50;;;;;;9164745;19;20253;-66
2023/04/20 08:11:06;;;;;;;;;;;10.00;57.50;;;;;;9172986;19;20299;-66
2023/04/20 08:14:10;;;;;;;;;;;10.10;57.50;;;;;;9165408;19;20367;-66
2023/04/20 08:17:16;;;;;;;;;;;10.20;57.50;;;;;;9172194;19;19919;-65
2023/04/20 08:20:20;;;;;;;;;;;10.30;57.50;;;;;;9172541;19;20392;-67
2023/04/20 08:23:28;;;;;;;;;;;10.30;57.40;;;;;;9174031;19;20261;-66
2023/04/20 08:26:32;;;;;;;;;;;10.40;57.50;;;;;;9169684;19;19956;-66
2023/04/20 08:29:38;;;;;;;;;;;10.40;57.50;;;;;;9172220;19;20348;-66
2023/04/20 08:32:42;;;;;;;;;;;10.40;57.60;;;;;;9172837;19;19950;-67
2023/04/20 08:35:51;;;;;;;;;;;10.50;57.60;;;;;;9168393;19;19926;-67
2023/04/20 08:38:57;;;;;;;;;;;10.60;57.70;;;;;;9170354;19;19946;-65
2023/04/20 08:42:03;;;;;;;;;;;10.70;57.70;;;;;;9157718;19;20978;-67
2023/04/20 08:45:07;;;;;;;;;;;10.80;57.70;;;;;;9152042;19;20301;-66
2023/04/20 08:48:14;;;;;;;;;;;10.90;57.70;;;;;;9166342;19;20265;-67
2023/04/20 08:51:18;;;;;;;;;;;11.00;57.70;;;;;;9168611;19;20368;-67
2023/04/20 08:54:26;;;;;;;;;;;11.10;57.70;;;;;;9169407;19;19922;-68
2023/04/20 08:57:29;;;;;;;;;;;11.30;57.80;;;;;;9172126;19;19937;-67
2023/04/20 09:00:35;;;;;;;;;;;11.40;57.70;;;;;;9173914;19;19922;-67
2023/04/20 09:03:40;;;;;;;;;;;11.50;57.80;;;;;;9173106;19;19926;-67
2023/04/20 09:06:48;;;;;;;;;;;11.60;57.80;;;;;;9169099;19;19919;-68
2023/04/20 09:09:58;;;;;;;;;;;11.70;57.70;;;;;;9169940;19;20012;-69
2023/04/20 09:13:03;;;;;;;;;;;11.80;57.70;;;;;;9168352;19;19923;-67
2023/04/20 09:16:11;;;;;;;;;;;11.90;57.70;;;;;;9164797;19;19927;-67
2023/04/20 09:19:22;;;;;;;;;;;11.90;57.60;;;;;;9165875;19;19926;-67
2023/04/20 09:22:30;;;;;;;;;;;11.90;57.60;;;;;;9167983;19;19914;-67
2023/04/20 09:25:39;;;;;;;;;;;11.90;57.50;;;;;;9164111;19;20344;-67
2023/04/20 09:28:45;;;;;;;;;;;11.90;57.60;;;;;;9165292;19;19926;-67
2023/04/20 09:31:51;;;;;;;;;;;11.90;57.60;;;;;;9165857;19;20391;-67
2023/04/20 09:34:55;;;;;;;;;;;11.80;57.60;;;;;;9168330;19;20256;-67
2023/04/20 09:38:01;;;;;;;;;;;11.70;57.60;;;;;;9162371;19;19919;-67
2023/04/20 09:41:07;;;;;;;;;;;11.70;57.60;;;;;;9163278;19;19938;-67
2023/04/20 09:44:13;;;;;;;;;;;11.60;57.60;;;;;;9171455;19;19922;-67
2023/04/20 09:47:18;;;;;;;;;;;11.60;57.70;;;;;;9174342;19;19926;-67
2023/04/20 09:50:24;;;;;;;;;;;11.60;57.80;;;;;;9166799;19;19915;-67
2023/04/20 09:53:41;;;;;;;;;;;11.60;57.90;;;;;;9167785;19;19922;-67
2023/04/20 09:56:49;;;;;;;;;;;11.80;58.00;;;;;;9168612;19;19918;-68
2023/04/20 09:59:56;;;;;;;;;;;11.90;57.90;;;;;;9161435;19;19922;-68
2023/04/20 10:03:02;;;;;;;;;;;12.00;57.90;;;;;;9170687;19;19914;-68
2023/04/20 10:06:07;;;;;;;;;;;12.10;57.80;;;;;;9169944;19;19914;-68
2023/04/20 10:09:21;;;;;;;;;;;12.20;57.80;;;;;;9166057;19;20253;-67
2023/04/20 10:12:27;;;;;;;;;;;12.20;57.70;;;;;;9161263;19;19959;-67
2023/04/20 10:15:42;;;;;;;;;;;12.20;57.70;;;;;;9159649;19;19926;-67
2023/04/20 10:18:56;;;;;;;;;;;12.20;57.90;;;;;;9159689;19;20610;-69
2023/04/20 10:22:03;;;;;;;;;;;12.40;58.50;;;;;;9158502;19;19919;-67
2023/04/20 10:25:15;;;;;;;;;;;12.50;57.80;;;;;;9157391;19;20337;-67
2023/04/20 10:28:23;;;;;;;;;;;12.70;57.80;;;;;;9158292;19;19923;-67
2023/04/20 10:31:36;;;;;;;;;;;12.90;57.80;;;;;;9168161;19;19934;-66
2023/04/20 10:34:41;;;;;;;;;;;13.00;57.70;;;;;;9167612;19;19910;-67
2023/04/20 10:37:49;;;;;;;;;;;13.10;57.60;;;;;;9170582;19;19944;-67
2023/04/20 10:40:54;;;;;;;;;;;13.10;57.50;;;;;;9173831;19;19918;-67
2023/04/20 10:44:09;;;;;;;;;;;13.10;57.50;;;;;;9173780;19;19990;-66
2023/04/20 10:47:15;;;;;;;;;;;13.10;57.70;;;;;;9173582;19;19922;-67
2023/04/20 10:50:19;;;;;;;;;;;13.10;57.60;;;;;;9176345;19;19926;-67
2023/04/20 10:53:25;;;;;;;;;;;13.10;57.60;;;;;;9168808;19;20260;-67
2023/04/20 10:56:37;;;;;;;;;;;13.10;57.60;;;;;;9173186;19;20256;-67
2023/04/20 10:59:45;;;;;;;;;;;13.10;57.60;;;;;;9177112;19;20268;-67
2023/04/20 11:02:50;;;;;;;;;;;13.10;57.60;;;;;;9177648;19;20355;-67
2023/04/20 11:05:59;;;;;;;;;;;13.10;57.60;;;;;;9170555;19;20568;-67
2023/04/20 11:09:04;;;;;;;;;;;13.10;57.60;;;;;;9172516;19;19930;-67
2023/04/20 11:12:10;;;;;;;;;;;13.00;57.60;;;;;;9171835;19;19915;-67
2023/04/20 11:15:17;;;;;;;;;;;13.10;57.80;;;;;;9170575;19;20649;-67
2023/04/20 11:18:22;;;;;;;;;;;13.10;57.60;;;;;;9173708;19;19918;-67
2023/04/20 11:21:36;;;;;;;;;;;13.20;57.70;;;;;;9172156;19;19926;-67
2023/04/20 11:24:43;;;;;;;;;;;13.10;57.50;;;;;;9172818;19;19918;-67
2023/04/20 11:27:46;;;;;;;;;;;13.10;57.50;;;;;;9172417;19;19930;-67
2023/04/20 11:30:55;;;;;;;;;;;13.00;57.50;;;;;;9172428;19;20352;-67
2023/04/20 11:33:58;;;;;;;;;;;13.00;57.60;;;;;;9170189;19;19934;-67
2023/04/20 11:37:05;;;;;;;;;;;13.00;57.70;;;;;;9165884;19;20332;-67
2023/04/20 11:40:09;;;;;;;;;;;13.10;57.70;;;;;;9171697;19;19926;-67
2023/04/20 11:43:15;;;;;;;;;;;13.20;57.80;;;;;;9170438;19;19914;-67
2023/04/20 11:46:21;;;;;;;;;;;13.20;57.70;;;;;;9176896;19;20330;-68
2023/04/20 11:49:28;;;;;;;;;;;13.20;57.60;;;;;;9176171;19;20261;-68
2023/04/20 11:52:32;;;;;;;;;;;13.20;57.60;;;;;;9177429;19;19933;-68
2023/04/20 11:55:37;;;;;;;;;;;13.20;57.50;;;;;;9179173;19;19927;-68
2023/04/20 11:58:41;;;;;;;;;;;13.30;57.60;;;;;;9179448;19;19919;-67
2023/04/20 12:01:49;;;;;;;;;;;13.20;57.50;;;;;;9179148;19;19927;-67
2023/04/20 12:04:53;;;;;;;;;;;13.20;57.60;;;;;;9179507;19;20576;-67
2023/04/20 12:07:59;;;;;;;;;;;13.20;57.50;;;;;;9179464;19;19930;-68
2023/04/20 12:11:02;;;;;;;;;;;13.20;57.50;;;;;;9172571;19;19926;-68
2023/04/20 12:14:08;;;;;;;;;;;13.10;57.50;;;;;;9157772;19;19934;-67
2023/04/20 12:17:14;;;;;;;;;;;13.20;57.60;;;;;;9162152;19;19929;-67
2023/04/20 12:20:20;;;;;;;;;;;13.20;57.50;;;;;;9163293;19;19918;-67
2023/04/20 12:23:23;;;;;;;;;;;13.20;57.50;;;;;;9161319;19;19930;-67
2023/04/20 12:26:29;;;;;;;;;;;13.20;57.50;;;;;;9164579;19;20238;-67
2023/04/20 12:29:41;;;;;;;;;;;13.20;57.50;;;;;;9160164;19;19953;-67
2023/04/20 12:32:49;;;;;;;;;;;13.20;57.50;;;;;;9164603;19;20248;-67
2023/04/20 12:35:53;;;;;;;;;;;13.20;57.50;;;;;;9157334;19;19930;-67
2023/04/20 12:38:59;;;;;;;;;;;13.20;57.60;;;;;;9161273;19;20348;-67
2023/04/20 12:42:03;;;;;;;;;;;13.20;57.50;;;;;;9162604;19;19951;-67
2023/04/20 12:45:09;;;;;;;;;;;13.30;57.50;;;;;;9164107;19;20264;-67
2023/04/20 12:48:15;;;;;;;;;;;13.30;57.50;;;;;;9160175;19;20332;-68
2023/04/20 12:51:21;;;;;;;;;;;13.30;57.50;;;;;;9163168;19;19926;-68
2023/04/20 12:54:24;;;;;;;;;;;13.30;57.50;;;;;;9161739;19;19923;-68
2023/04/20 12:57:30;;;;;;;;;;;13.30;57.50;;;;;;9161176;19;19922;-67
2023/04/20 13:00:34;;;;;;;;;;;13.30;57.50;;;;;;9161078;19;20257;-68
2023/04/20 13:03:42;;;;;;;;;;;13.30;57.40;;;;;;9161188;19;19934;-67
2023/04/20 13:06:46;;;;;;;;;;;13.40;57.40;;;;;;9161123;19;19943;-67
2023/04/20 13:09:52;;;;;;;;;;;13.40;57.40;;;;;;9160662;19;19930;-68
2023/04/20 13:12:56;;;;;;;;;;;13.40;57.40;;;;;;9162513;19;19922;-68
2023/04/20 13:16:02;;;;;;;;;;;13.40;57.30;;;;;;9164094;19;19930;-68
2023/04/20 13:19:08;;;;;;;;;;;13.40;57.30;;;;;;9169562;19;19919;-68
2023/04/20 13:22:14;;;;;;;;;;;13.50;57.40;;;;;;9169218;19;19918;-68
2023/04/20 13:25:21;;;;;;;;;;;13.50;57.40;;;;;;9163446;19;20272;-68
2023/04/20 13:28:27;;;;;;;;;;;13.60;57.40;;;;;;9164546;19;19923;-67
2023/04/20 13:31:31;;;;;;;;;;;13.60;57.30;;;;;;9160328;19;20466;-68
2023/04/20 13:34:39;;;;;;;;;;;13.60;57.30;;;;;;9160851;19;19927;-68
2023/04/20 13:37:45;;;;;;;;;;;13.70;57.30;;;;;;9153879;19;19923;-68
2023/04/20 13:40:51;;;;;;;;;;;13.70;57.30;;;;;;9157970;19;19914;-67
2023/04/20 13:43:55;;;;;;;;;;;13.70;57.30;;;;;;9158597;19;19931;-67
2023/04/20 13:47:00;;;;;;;;;;;13.70;57.20;;;;;;9159995;19;19924;-68
2023/04/20 13:50:06;;;;;;;;;;;13.70;57.30;;;;;;9161752;19;19930;-69
2023/04/20 13:53:14;;;;;;;;;;;13.80;57.30;;;;;;9159620;19;20351;-67
2023/04/20 13:56:18;;;;;;;;;;;13.90;57.20;;;;;;9160476;19;20352;-68
2023/04/20 13:59:24;;;;;;;;;;;14.00;57.20;;;;;;9160711;19;19918;-67
2023/04/20 14:02:29;;;;;;;;;;;14.00;57.20;;;;;;9160760;19;19923;-67
2023/04/20 14:05:37;;;;;;;;;;;14.10;57.20;;;;;;9157840;19;19915;-67
2023/04/20 14:08:41;;;;;;;;;;;14.20;57.70;;;;;;9168362;19;20352;-67
2023/04/20 14:11:47;;;;;;;;;;;14.20;57.00;;;;;;9168088;19;19923;-68
2023/04/20 14:14:57;;;;;;;;;;;14.40;57.10;;;;;;9165297;19;20278;-67
2023/04/20 14:18:03;;;;;;;;;;;14.40;57.00;;;;;;9167025;19;20433;-67
2023/04/20 14:21:09;;;;;;;;;;;14.50;57.00;;;;;;9167609;19;19922;-67
2023/04/20 14:24:15;;;;;;;;;;;14.60;57.00;;;;;;9169003;19;19918;-68
2023/04/20 14:27:19;;;;;;;;;;;14.60;56.90;;;;;;9167979;19;20341;-67
2023/04/20 14:30:25;;;;;;;;;;;14.70;56.90;;;;;;9169010;19;19915;-67
2023/04/20 14:33:28;;;;;;;;;;;14.70;56.90;;;;;;9165206;19;20002;-67
2023/04/20 14:36:36;;;;;;;;;;;14.80;57.50;;;;;;9161989;19;19918;-67
2023/04/20 14:39:40;;;;;;;;;;;14.80;56.80;;;;;;9169256;19;19922;-67
2023/04/20 14:42:46;;;;;;;;;;;14.80;56.70;;;;;;9163284;19;19922;-67
2023/04/20 14:45:50;;;;;;;;;;;14.80;56.70;;;;;;9165655;19;19929;-67
2023/04/20 14:48:55;;;;;;;;;;;14.80;56.70;;;;;;9170701;19;20383;-68
2023/04/20 14:52:01;;;;;;;;;;;14.80;56.80;;;;;;9171491;19;20345;-67
2023/04/20 14:55:07;;;;;;;;;;;14.80;56.70;;;;;;9170928;19;19911;-68
2023/04/20 14:58:11;;;;;;;;;;;14.70;56.70;;;;;;9175437;19;19922;-68
2023/04/20 15:01:16;;;;;;;;;;;14.80;56.80;;;;;;9180626;19;20015;-67
2023/04/20 15:04:20;;;;;;;;;;;14.70;56.70;;;;;;9180386;19;19923;-67
2023/04/20 15:07:29;;;;;;;;;;;14.70;56.80;;;;;;9180070;19;19911;-67
2023/04/20 15:10:32;;;;;;;;;;;14.70;56.70;;;;;;9181039;19;19922;-68
2023/04/20 15:13:41;;;;;;;;;;;14.70;56.70;;;;;;9178886;19;19917;-67
2023/04/20 15:16:44;;;;;;;;;;;14.80;56.70;;;;;;9181189;19;20014;-67
2023/04/20 15:19:50;;;;;;;;;;;14.70;56.60;;;;;;9178076;19;19925;-69
2023/04/20 15:22:56;;;;;;;;;;;14.70;56.70;;;;;;9169458;19;20078;-67
2023/04/20 15:26:02;;;;;;;;;;;14.70;56.60;;;;;;9174176;19;19911;-66
2023/04/20 15:29:05;;;;;;;;;;;14.60;56.60;;;;;;9178048;19;19926;-66
2023/04/20 15:32:11;;;;;;;;;;;14.60;56.60;;;;;;9170876;19;19919;-67
2023/04/20 15:35:15;;;;;;;;;;;14.50;56.50;;;;;;9167769;19;19937;-66
2023/04/20 15:38:23;;;;;;;;;;;14.50;56.50;;;;;;9162325;19;19925;-66
2023/04/20 15:41:26;;;;;;;;;;;14.50;56.50;;;;;;9180097;19;19931;-66
2023/04/20 15:44:32;;;;;;;;;;;14.50;56.50;;;;;;9179475;19;19951;-66
2023/04/20 15:47:36;;;;;;;;;;;14.50;56.40;;;;;;9178929;19;20620;-66
2023/04/20 15:50:42;;;;;;;;;;;14.50;56.50;;;;;;9178671;19;19918;-66
2023/04/20 15:53:49;;;;;;;;;;;14.40;56.40;;;;;;9178320;19;19927;-67
2023/04/20 15:56:57;;;;;;;;;;;14.40;56.70;;;;;;9176860;19;19974;-67
2023/04/20 16:00:01;;;;;;;;;;;14.40;56.50;;;;;;9179453;19;19918;-67
2023/04/20 16:03:15;;;;;;;;;;;14.40;56.40;;;;;;9168400;19;19911;-67
2023/04/20 16:06:19;;;;;;;;;;;14.40;56.40;;;;;;9170907;19;19952;-67
2023/04/20 16:09:27;;;;;;;;;;;14.40;56.50;;;;;;9171369;19;19919;-66
2023/04/20 16:12:30;;;;;;;;;;;14.50;56.50;;;;;;9170420;19;19956;-66
2023/04/20 16:15:36;;;;;;;;;;;14.40;56.30;;;;;;9168603;19;19934;-67
2023/04/20 16:18:40;;;;;;;;;;;14.50;56.40;;;;;;9171517;19;19922;-67
2023/04/20 16:21:46;;;;;;;;;;;14.50;56.30;;;;;;9171545;19;19918;-66
2023/04/20 16:24:51;;;;;;;;;;;14.50;56.30;;;;;;9171431;19;19926;-66
2023/04/20 16:27:57;;;;;;;;;;;14.50;56.30;;;;;;9169299;19;19949;-66
2023/04/20 16:31:01;;;;;;;;;;;14.50;56.30;;;;;;9169598;19;20841;-66
2023/04/20 16:34:09;;;;;;;;;;;14.60;56.30;;;;;;9166843;19;20015;-66
2023/04/20 16:37:13;;;;;;;;;;;14.50;56.30;;;;;;9165671;19;19919;-66
2023/04/20 16:40:21;;;;;;;;;;;14.60;56.20;;;;;;9170355;19;19919;-66
2023/04/20 16:43:25;;;;;;;;;;;14.60;56.20;;;;;;9170706;19;19958;-66
2023/04/20 16:46:34;;;;;;;;;;;14.60;56.20;;;;;;9171150;19;19925;-66
2023/04/20 16:49:38;;;;;;;;;;;14.60;56.10;;;;;;9176979;19;20386;-66
2023/04/20 16:52:43;;;;;;;;;;;14.60;56.80;;;;;;9175855;19;19926;-67
2023/04/20 16:55:49;;;;;;;;;;;14.60;56.20;;;;;;9174301;19;19929;-66
2023/04/20 16:58:55;;;;;;;;;;;14.60;56.10;;;;;;9176777;19;19918;-67
2023/04/20 17:01:59;;;;;;;;;;;14.60;56.80;;;;;;9176638;19;19925;-67
2023/04/20 17:05:06;;;;;;;;;;;14.60;56.20;;;;;;9176598;19;20337;-67
2023/04/20 17:08:10;;;;;;;;;;;14.50;56.20;;;;;;9177068;19;19958;-67
2023/04/20 17:11:18;;;;;;;;;;;14.50;56.30;;;;;;9175268;19;19922;-67
2023/04/20 17:14:21;;;;;;;;;;;14.40;56.30;;;;;;9171390;19;19927;-67
2023/04/20 17:17:27;;;;;;;;;;;14.40;56.30;;;;;;9175472;19;19918;-67
2023/04/20 17:20:31;;;;;;;;;;;14.40;56.30;;;;;;9176051;19;20497;-67
2023/04/20 17:23:37;;;;;;;;;;;14.30;56.30;;;;;;9174939;19;19925;-67
2023/04/20 17:26:42;;;;;;;;;;;14.30;56.30;;;;;;9175012;19;20071;-67
2023/04/20 17:29:48;;;;;;;;;;;14.20;56.30;;;;;;9173230;19;19929;-67
2023/04/20 17:32:53;;;;;;;;;;;14.20;56.30;;;;;;9175318;19;20345;-67
2023/04/20 17:36:00;;;;;;;;;;;14.20;56.40;;;;;;9166202;19;19915;-67
2023/04/20 17:39:04;;;;;;;;;;;14.10;56.30;;;;;;9175800;19;19915;-67
2023/04/20 17:42:12;;;;;;;;;;;14.10;56.30;;;;;;9181901;19;20297;-67
2023/04/20 17:45:16;;;;;;;;;;;14.10;56.30;;;;;;9182649;19;19938;-67
2023/04/20 17:48:21;;;;;;;;;;;14.10;56.40;;;;;;9183229;19;19919;-67
2023/04/20 17:51:25;;;;;;;;;;;14.00;56.30;;;;;;9182274;19;19923;-67
2023/04/20 17:54:32;;;;;;;;;;;14.00;56.40;;;;;;9181500;19;19929;-68
2023/04/20 17:57:39;;;;;;;;;;;14.00;56.40;;;;;;9183338;19;19919;-67
2023/04/20 18:00:46;;;;;;;;;;;13.90;56.30;;;;;;9181328;19;19922;-67
2023/04/20 18:03:50;;;;;;;;;;;13.90;56.40;;;;;;9182808;19;20022;-67
2023/04/20 18:06:56;;;;;;;;;;;13.90;56.50;;;;;;9183259;19;19918;-67
2023/04/20 18:10:00;;;;;;;;;;;13.70;56.40;;;;;;9182801;19;19955;-67
2023/04/20 18:13:07;;;;;;;;;;;13.70;56.50;;;;;;9181383;19;19926;-68